sensor_id;sensor_type;location;lat;lon;timestamp;temperature;humidity
56123;DHT22;42426;46.104;19.656;2023-04-03T00:01:34;230.70;2227.20
56123;DHT22;42426;46.104;19.656;2023-04-03T00:04:00;230.60;2252.80
56123;DHT22;42426;46.104;19.656;2023-04-03T00:06:26;230.60;2252.80
56123;DHT22;42426;46.104;19.656;2023-04-03T00:08:52;230.50;2252.80
56123;DHT22;42426;46.104;19.656;2023-04-03T00:11:19;230.50;2252.80
56123;DHT22;42426;46.104;19.656;2023-04-03T00:13:46;230.50;2252.80
56123;DHT22;42426;46.104;19.656;2023-04-03T00:16:12;230.40;2252.80
56123;DHT22;42426;46.104;19.656;2023-04-03T00:18:39;230.40;2252.80
56123;DHT22;42426;46.104;19.656;2023-04-03T00:21:05;230.40;2252.80
56123;DHT22;42426;46.104;19.656;2023-04-03T00:23:34;205.70;2252.80
56123;DHT22;42426;46.104;19.656;2023-04-03T00:26:00;230.40;2252.80
56123;DHT22;42426;46.104;19.656;2023-04-03T00:28:27;230.50;2252.80
56123;DHT22;42426;46.104;19.656;2023-04-03T00:30:53;230.50;2252.80
56123;DHT22;42426;46.104;19.656;2023-04-03T00:33:19;230.50;2252.80
56123;DHT22;42426;46.104;19.656;2023-04-03T00:35:47;230.40;2252.80
56123;DHT22;42426;46.104;19.656;2023-04-03T00:38:14;230.50;2252.80
56123;DHT22;42426;46.104;19.656;2023-04-03T00:40:43;205.70;2252.80
56123;DHT22;42426;46.104;19.656;2023-04-03T00:43:19;205.70;2252.80
56123;DHT22;42426;46.104;19.656;2023-04-03T00:45:48;205.70;2252.80
56123;DHT22;42426;46.104;19.656;2023-04-03T00:48:20;205.70;2252.80
56123;DHT22;42426;46.104;19.656;2023-04-03T00:50:47;205.60;2252.80
56123;DHT22;42426;46.104;19.656;2023-04-03T00:53:17;205.50;2252.80
56123;DHT22;42426;46.104;19.656;2023-04-03T00:55:45;205.60;2252.80
56123;DHT22;42426;46.104;19.656;2023-04-03T00:58:12;205.70;2252.80
56123;DHT22;42426;46.104;19.656;2023-04-03T01:00:43;230.40;2252.80
56123;DHT22;42426;46.104;19.656;2023-04-03T01:03:11;205.70;2252.80
56123;DHT22;42426;46.104;19.656;2023-04-03T01:05:37;205.70;2252.80
56123;DHT22;42426;46.104;19.656;2023-04-03T01:08:03;205.70;2252.80
56123;DHT22;42426;46.104;19.656;2023-04-03T01:10:28;205.70;2252.80
56123;DHT22;42426;46.104;19.656;2023-04-03T01:12:54;205.70;2252.80
56123;DHT22;42426;46.104;19.656;2023-04-03T01:15:24;230.40;2252.80
56123;DHT22;42426;46.104;19.656;2023-04-03T01:17:55;230.50;2252.80
56123;DHT22;42426;46.104;19.656;2023-04-03T01:25:28;230.50;2252.80
56123;DHT22;42426;46.104;19.656;2023-04-03T01:27:54;230.40;2252.80
56123;DHT22;42426;46.104;19.656;2023-04-03T01:30:21;230.40;2252.80
56123;DHT22;42426;46.104;19.656;2023-04-03T01:32:49;230.40;2252.80
56123;DHT22;42426;46.104;19.656;2023-04-03T01:35:15;230.40;2252.80
56123;DHT22;42426;46.104;19.656;2023-04-03T01:37:40;230.40;2252.80
56123;DHT22;42426;46.104;19.656;2023-04-03T01:40:07;230.50;2252.80
56123;DHT22;42426;46.104;19.656;2023-04-03T01:42:33;230.60;2252.80
56123;DHT22;42426;46.104;19.656;2023-04-03T01:44:59;230.50;2252.80
56123;DHT22;42426;46.104;19.656;2023-04-03T01:47:25;230.50;2252.80
56123;DHT22;42426;46.104;19.656;2023-04-03T01:49:52;230.50;2252.80
56123;DHT22;42426;46.104;19.656;2023-04-03T01:52:17;230.60;2252.80
56123;DHT22;42426;46.104;19.656;2023-04-03T01:54:43;230.60;2252.80
56123;DHT22;42426;46.104;19.656;2023-04-03T01:57:09;230.60;2252.80
56123;DHT22;42426;46.104;19.656;2023-04-03T01:59:35;230.50;2252.80
56123;DHT22;42426;46.104;19.656;2023-04-03T02:02:01;230.50;2252.80
56123;DHT22;42426;46.104;19.656;2023-04-03T02:04:27;230.50;2252.80
56123;DHT22;42426;46.104;19.656;2023-04-03T02:06:52;230.50;2252.80
56123;DHT22;42426;46.104;19.656;2023-04-03T02:09:18;230.50;2252.80
56123;DHT22;42426;46.104;19.656;2023-04-03T02:11:44;230.50;2252.80
56123;DHT22;42426;46.104;19.656;2023-04-03T02:14:09;230.70;2252.80
56123;DHT22;42426;46.104;19.656;2023-04-03T02:16:35;230.70;2252.80
56123;DHT22;42426;46.104;19.656;2023-04-03T02:19:01;230.50;2252.80
56123;DHT22;42426;46.104;19.656;2023-04-03T02:21:27;230.60;2252.80
56123;DHT22;42426;46.104;19.656;2023-04-03T02:23:53;230.50;2252.80
56123;DHT22;42426;46.104;19.656;2023-04-03T02:26:19;230.60;2252.80
56123;DHT22;42426;46.104;19.656;2023-04-03T02:28:45;230.60;2252.80
56123;DHT22;42426;46.104;19.656;2023-04-03T02:31:11;230.60;2252.80
56123;DHT22;42426;46.104;19.656;2023-04-03T02:33:37;230.50;2252.80
56123;DHT22;42426;46.104;19.656;2023-04-03T02:36:05;230.50;2252.80
56123;DHT22;42426;46.104;19.656;2023-04-03T02:38:31;230.50;2252.80
56123;DHT22;42426;46.104;19.656;2023-04-03T02:41:01;230.50;2252.80
56123;DHT22;42426;46.104;19.656;2023-04-03T02:43:27;230.50;2252.80
56123;DHT22;42426;46.104;19.656;2023-04-03T02:45:53;230.50;2252.80
56123;DHT22;42426;46.104;19.656;2023-04-03T02:48:19;230.60;2252.80
56123;DHT22;42426;46.104;19.656;2023-04-03T02:50:44;230.60;2252.80
56123;DHT22;42426;46.104;19.656;2023-04-03T02:53:10;230.60;2252.80
56123;DHT22;42426;46.104;19.656;2023-04-03T02:55:36;230.50;2252.80
56123;DHT22;42426;46.104;19.656;2023-04-03T02:58:02;230.50;2252.80
56123;DHT22;42426;46.104;19.656;2023-04-03T03:00:29;230.50;2252.80
56123;DHT22;42426;46.104;19.656;2023-04-03T03:02:55;230.50;2252.80
56123;DHT22;42426;46.104;19.656;2023-04-03T03:05:21;230.50;2252.80
56123;DHT22;42426;46.104;19.656;2023-04-03T03:07:47;230.50;2252.80
56123;DHT22;42426;46.104;19.656;2023-04-03T03:10:13;230.50;2252.80
56123;DHT22;42426;46.104;19.656;2023-04-03T03:12:40;230.50;2252.80
56123;DHT22;42426;46.104;19.656;2023-04-03T03:15:06;230.50;2252.80
56123;DHT22;42426;46.104;19.656;2023-04-03T03:17:33;230.50;2252.80
56123;DHT22;42426;46.104;19.656;2023-04-03T03:19:58;230.50;2252.80
56123;DHT22;42426;46.104;19.656;2023-04-03T03:22:25;230.40;2252.80
56123;DHT22;42426;46.104;19.656;2023-04-03T03:24:50;230.50;2252.80
56123;DHT22;42426;46.104;19.656;2023-04-03T03:27:16;230.50;2252.80
56123;DHT22;42426;46.104;19.656;2023-04-03T03:29:42;230.50;2252.80
56123;DHT22;42426;46.104;19.656;2023-04-03T03:32:08;230.50;2252.80
56123;DHT22;42426;46.104;19.656;2023-04-03T03:34:34;230.50;2252.80
56123;DHT22;42426;46.104;19.656;2023-04-03T03:37:01;230.50;2252.80
56123;DHT22;42426;46.104;19.656;2023-04-03T03:39:26;230.50;2252.80
56123;DHT22;42426;46.104;19.656;2023-04-03T03:41:52;230.50;2252.80
56123;DHT22;42426;46.104;19.656;2023-04-03T03:44:19;230.40;2252.80
56123;DHT22;42426;46.104;19.656;2023-04-03T03:46:45;230.40;2252.80
56123;DHT22;42426;46.104;19.656;2023-04-03T03:49:11;230.40;2252.80
56123;DHT22;42426;46.104;19.656;2023-04-03T03:51:37;230.50;2252.80
56123;DHT22;42426;46.104;19.656;2023-04-03T03:54:03;230.50;2252.80
56123;DHT22;42426;46.104;19.656;2023-04-03T03:56:31;230.40;2252.80
56123;DHT22;42426;46.104;19.656;2023-04-03T03:58:57;230.50;2252.80
56123;DHT22;42426;46.104;19.656;2023-04-03T04:01:23;230.40;2252.80
56123;DHT22;42426;46.104;19.656;2023-04-03T04:03:50;230.40;2252.80
56123;DHT22;42426;46.104;19.656;2023-04-03T04:06:16;230.40;2252.80
56123;DHT22;42426;46.104;19.656;2023-04-03T04:08:42;205.70;2252.80
56123;DHT22;42426;46.104;19.656;2023-04-03T04:11:09;230.40;2252.80
56123;DHT22;42426;46.104;19.656;2023-04-03T04:13:35;230.40;2252.80
56123;DHT22;42426;46.104;19.656;2023-04-03T04:16:00;230.40;2252.80
56123;DHT22;42426;46.104;19.656;2023-04-03T04:18:26;230.40;2252.80
56123;DHT22;42426;46.104;19.656;2023-04-03T04:20:52;230.40;2252.80
56123;DHT22;42426;46.104;19.656;2023-04-03T04:23:19;230.40;2252.80
56123;DHT22;42426;46.104;19.656;2023-04-03T04:25:46;230.50;2252.80
56123;DHT22;42426;46.104;19.656;2023-04-03T04:28:12;230.60;2252.80
56123;DHT22;42426;46.104;19.656;2023-04-03T04:30:38;230.60;2252.80
56123;DHT22;42426;46.104;19.656;2023-04-03T04:33:04;230.60;2252.80
56123;DHT22;42426;46.104;19.656;2023-04-03T04:35:30;230.50;2252.80
56123;DHT22;42426;46.104;19.656;2023-04-03T04:37:55;230.50;2252.80
56123;DHT22;42426;46.104;19.656;2023-04-03T04:40:21;230.40;2252.80
56123;DHT22;42426;46.104;19.656;2023-04-03T04:42:48;230.50;2252.80
56123;DHT22;42426;46.104;19.656;2023-04-03T04:45:14;230.40;2252.80
56123;DHT22;42426;46.104;19.656;2023-04-03T04:47:40;230.40;2252.80
56123;DHT22;42426;46.104;19.656;2023-04-03T04:50:07;230.40;2252.80
56123;DHT22;42426;46.104;19.656;2023-04-03T04:52:33;205.70;2252.80
56123;DHT22;42426;46.104;19.656;2023-04-03T04:54:58;230.40;2252.80
56123;DHT22;42426;46.104;19.656;2023-04-03T04:57:25;205.70;2252.80
56123;DHT22;42426;46.104;19.656;2023-04-03T04:59:50;205.70;2252.80
56123;DHT22;42426;46.104;19.656;2023-04-03T05:02:16;205.70;2252.80
56123;DHT22;42426;46.104;19.656;2023-04-03T05:04:42;230.40;2252.80
56123;DHT22;42426;46.104;19.656;2023-04-03T05:07:08;205.70;2252.80
56123;DHT22;42426;46.104;19.656;2023-04-03T05:09:34;230.40;2252.80
56123;DHT22;42426;46.104;19.656;2023-04-03T05:12:00;230.40;2252.80
56123;DHT22;42426;46.104;19.656;2023-04-03T05:14:28;230.40;2252.80
56123;DHT22;42426;46.104;19.656;2023-04-03T05:16:54;230.40;2252.80
56123;DHT22;42426;46.104;19.656;2023-04-03T05:19:23;230.40;2252.80
56123;DHT22;42426;46.104;19.656;2023-04-03T05:21:48;205.70;2252.80
56123;DHT22;42426;46.104;19.656;2023-04-03T05:24:15;205.70;2252.80
56123;DHT22;42426;46.104;19.656;2023-04-03T05:26:42;205.70;2252.80
56123;DHT22;42426;46.104;19.656;2023-04-03T05:29:08;230.40;2252.80
56123;DHT22;42426;46.104;19.656;2023-04-03T05:31:34;230.40;2252.80
56123;DHT22;42426;46.104;19.656;2023-04-03T05:34:00;230.50;2252.80
56123;DHT22;42426;46.104;19.656;2023-04-03T05:36:26;230.50;2252.80
56123;DHT22;42426;46.104;19.656;2023-04-03T05:38:52;230.50;2252.80
56123;DHT22;42426;46.104;19.656;2023-04-03T05:41:18;230.50;2252.80
56123;DHT22;42426;46.104;19.656;2023-04-03T05:43:44;230.50;2252.80
56123;DHT22;42426;46.104;19.656;2023-04-03T05:46:15;230.60;2252.80
56123;DHT22;42426;46.104;19.656;2023-04-03T05:48:41;230.50;2252.80
56123;DHT22;42426;46.104;19.656;2023-04-03T05:51:09;230.50;2252.80
56123;DHT22;42426;46.104;19.656;2023-04-03T05:53:38;230.40;2252.80
56123;DHT22;42426;46.104;19.656;2023-04-03T05:56:04;230.40;2252.80
56123;DHT22;42426;46.104;19.656;2023-04-03T05:58:30;230.40;2252.80
56123;DHT22;42426;46.104;19.656;2023-04-03T06:00:56;230.50;2252.80
56123;DHT22;42426;46.104;19.656;2023-04-03T06:03:22;230.50;2252.80
56123;DHT22;42426;46.104;19.656;2023-04-03T06:05:48;230.40;2252.80
56123;DHT22;42426;46.104;19.656;2023-04-03T06:08:14;230.50;2252.80
56123;DHT22;42426;46.104;19.656;2023-04-03T06:10:40;230.50;2252.80
56123;DHT22;42426;46.104;19.656;2023-04-03T06:13:05;230.60;2252.80
56123;DHT22;42426;46.104;19.656;2023-04-03T06:15:31;230.60;2252.80
56123;DHT22;42426;46.104;19.656;2023-04-03T06:17:58;230.60;2252.80
56123;DHT22;42426;46.104;19.656;2023-04-03T06:20:23;230.60;2252.80
56123;DHT22;42426;46.104;19.656;2023-04-03T06:22:49;230.60;2252.80
56123;DHT22;42426;46.104;19.656;2023-04-03T06:25:16;230.60;2252.80
56123;DHT22;42426;46.104;19.656;2023-04-03T06:27:44;230.70;2252.80
56123;DHT22;42426;46.104;19.656;2023-04-03T06:30:10;230.80;2252.80
56123;DHT22;42426;46.104;19.656;2023-04-03T06:32:37;230.70;2252.80
56123;DHT22;42426;46.104;19.656;2023-04-03T06:35:03;230.70;2252.80
56123;DHT22;42426;46.104;19.656;2023-04-03T06:37:29;230.80;2252.80
56123;DHT22;42426;46.104;19.656;2023-04-03T06:39:56;230.90;2252.80
56123;DHT22;42426;46.104;19.656;2023-04-03T06:42:22;231.00;2252.80
56123;DHT22;42426;46.104;19.656;2023-04-03T06:44:48;231.00;2252.80
56123;DHT22;42426;46.104;19.656;2023-04-03T06:47:14;231.00;2252.80
56123;DHT22;42426;46.104;19.656;2023-04-03T06:49:40;230.90;2252.80
56123;DHT22;42426;46.104;19.656;2023-04-03T06:52:07;230.80;2252.80
56123;DHT22;42426;46.104;19.656;2023-04-03T06:54:33;230.90;2252.80
56123;DHT22;42426;46.104;19.656;2023-04-03T06:56:59;231.00;2252.80
56123;DHT22;42426;46.104;19.656;2023-04-03T06:59:25;231.10;2252.80
56123;DHT22;42426;46.104;19.656;2023-04-03T07:01:51;231.10;2252.80
56123;DHT22;42426;46.104;19.656;2023-04-03T07:04:17;231.10;2252.80
56123;DHT22;42426;46.104;19.656;2023-04-03T07:06:44;231.00;2252.80
56123;DHT22;42426;46.104;19.656;2023-04-03T07:09:10;231.00;2252.80
56123;DHT22;42426;46.104;19.656;2023-04-03T07:11:36;231.10;2252.80
56123;DHT22;42426;46.104;19.656;2023-04-03T07:14:08;231.10;2252.80
56123;DHT22;42426;46.104;19.656;2023-04-03T07:16:35;231.10;2252.80
56123;DHT22;42426;46.104;19.656;2023-04-03T07:19:01;231.10;2252.80
56123;DHT22;42426;46.104;19.656;2023-04-03T07:21:27;231.00;2252.80
56123;DHT22;42426;46.104;19.656;2023-04-03T07:23:53;231.10;2252.80
56123;DHT22;42426;46.104;19.656;2023-04-03T07:26:19;231.20;2252.80
56123;DHT22;42426;46.104;19.656;2023-04-03T07:28:48;231.10;2227.20
56123;DHT22;42426;46.104;19.656;2023-04-03T07:31:15;231.20;2252.80
56123;DHT22;42426;46.104;19.656;2023-04-03T07:33:43;231.20;2227.20
56123;DHT22;42426;46.104;19.656;2023-04-03T07:36:13;231.30;2227.20
56123;DHT22;42426;46.104;19.656;2023-04-03T07:38:40;256.00;2201.60
56123;DHT22;42426;46.104;19.656;2023-04-03T07:41:06;256.10;2201.60
56123;DHT22;42426;46.104;19.656;2023-04-03T07:43:32;256.10;2176.00
56123;DHT22;42426;46.104;19.656;2023-04-03T07:45:59;256.20;2176.00
56123;DHT22;42426;46.104;19.656;2023-04-03T07:48:26;256.20;2201.60
56123;DHT22;42426;46.104;19.656;2023-04-03T07:50:52;256.20;2176.00
56123;DHT22;42426;46.104;19.656;2023-04-03T07:53:18;256.30;2124.80
56123;DHT22;42426;46.104;19.656;2023-04-03T07:55:47;256.20;2150.40
56123;DHT22;42426;46.104;19.656;2023-04-03T07:58:16;256.30;2150.40
56123;DHT22;42426;46.104;19.656;2023-04-03T08:00:42;256.30;2124.80
56123;DHT22;42426;46.104;19.656;2023-04-03T08:03:10;256.20;2124.80
56123;DHT22;42426;46.104;19.656;2023-04-03T08:05:44;256.00;2150.40
56123;DHT22;42426;46.104;19.656;2023-04-03T08:08:16;256.00;2150.40
56123;DHT22;42426;46.104;19.656;2023-04-03T08:10:42;256.10;2099.20
56123;DHT22;42426;46.104;19.656;2023-04-03T08:13:08;256.20;2150.40
56123;DHT22;42426;46.104;19.656;2023-04-03T08:15:34;256.40;2176.00
56123;DHT22;42426;46.104;19.656;2023-04-03T08:18:00;256.40;2124.80
56123;DHT22;42426;46.104;19.656;2023-04-03T08:20:26;256.40;2099.20
56123;DHT22;42426;46.104;19.656;2023-04-03T08:22:52;256.50;2099.20
56123;DHT22;42426;46.104;19.656;2023-04-03T08:25:18;256.50;2099.20
56123;DHT22;42426;46.104;19.656;2023-04-03T08:27:44;256.60;2099.20
56123;DHT22;42426;46.104;19.656;2023-04-03T08:30:10;256.70;2124.80
56123;DHT22;42426;46.104;19.656;2023-04-03T08:32:36;256.80;2099.20
56123;DHT22;42426;46.104;19.656;2023-04-03T08:35:03;256.70;2048.00
56123;DHT22;42426;46.104;19.656;2023-04-03T08:37:30;256.70;2048.00
56123;DHT22;42426;46.104;19.656;2023-04-03T08:39:56;256.70;2048.00
56123;DHT22;42426;46.104;19.656;2023-04-03T08:45:42;256.80;2073.60
56123;DHT22;42426;46.104;19.656;2023-04-03T08:48:17;256.80;2022.40
56123;DHT22;42426;46.104;19.656;2023-04-03T08:50:47;256.90;2048.00
56123;DHT22;42426;46.104;19.656;2023-04-03T08:53:35;281.70;2073.60
56123;DHT22;42426;46.104;19.656;2023-04-03T08:56:07;281.70;2099.20
56123;DHT22;42426;46.104;19.656;2023-04-03T08:58:50;281.80;2073.60
56123;DHT22;42426;46.104;19.656;2023-04-03T09:01:38;281.90;2073.60
56123;DHT22;42426;46.104;19.656;2023-04-03T09:04:14;282.00;2048.00
56123;DHT22;42426;46.104;19.656;2023-04-03T09:06:43;282.00;1971.20
56123;DHT22;42426;46.104;19.656;2023-04-03T09:09:31;281.90;1971.20
56123;DHT22;42426;46.104;19.656;2023-04-03T09:12:22;282.00;2048.00
56123;DHT22;42426;46.104;19.656;2023-04-03T09:15:10;282.10;2022.40
56123;DHT22;42426;46.104;19.656;2023-04-03T09:20:24;282.30;2048.00
56123;DHT22;42426;46.104;19.656;2023-04-03T09:22:51;282.30;1996.80
56123;DHT22;42426;46.104;19.656;2023-04-03T09:25:32;282.30;1971.20
56123;DHT22;42426;46.104;19.656;2023-04-03T09:28:00;282.20;2022.40
56123;DHT22;42426;46.104;19.656;2023-04-03T09:30:27;282.20;1971.20
56123;DHT22;42426;46.104;19.656;2023-04-03T09:32:55;282.20;1996.80
56123;DHT22;42426;46.104;19.656;2023-04-03T09:35:32;282.20;1996.80
56123;DHT22;42426;46.104;19.656;2023-04-03T09:40:41;282.10;1971.20
56123;DHT22;42426;46.104;19.656;2023-04-03T09:43:28;282.10;2022.40
56123;DHT22;42426;46.104;19.656;2023-04-03T09:45:55;282.20;1996.80
56123;DHT22;42426;46.104;19.656;2023-04-03T09:48:25;282.20;1945.60
56123;DHT22;42426;46.104;19.656;2023-04-03T09:50:54;282.20;1945.60
56123;DHT22;42426;46.104;19.656;2023-04-03T09:53:38;282.20;1971.20
56123;DHT22;42426;46.104;19.656;2023-04-03T09:58:45;282.30;1996.80
56123;DHT22;42426;46.104;19.656;2023-04-03T10:01:29;282.40;1996.80
56123;DHT22;42426;46.104;19.656;2023-04-03T10:04:17;282.40;1945.60
56123;DHT22;42426;46.104;19.656;2023-04-03T10:09:32;282.30;1945.60
56123;DHT22;42426;46.104;19.656;2023-04-03T10:12:08;282.30;1971.20
56123;DHT22;42426;46.104;19.656;2023-04-03T10:14:37;282.40;1996.80
56123;DHT22;42426;46.104;19.656;2023-04-03T10:19:42;307.20;1996.80
56123;DHT22;42426;46.104;19.656;2023-04-03T10:38:57;307.50;1843.20
56123;DHT22;42426;46.104;19.656;2023-04-03T10:41:52;307.40;1920.00
56123;DHT22;42426;46.104;19.656;2023-04-03T10:47:19;307.40;1868.80
56123;DHT22;42426;46.104;19.656;2023-04-03T10:52:28;307.80;1817.60
56123;DHT22;42426;46.104;19.656;2023-04-03T10:55:22;307.90;1792.00
56123;DHT22;42426;46.104;19.656;2023-04-03T10:57:50;307.90;1740.80
56123;DHT22;42426;46.104;19.656;2023-04-03T11:00:21;307.90;1792.00
56123;DHT22;42426;46.104;19.656;2023-04-03T11:02:52;307.90;1792.00
56123;DHT22;42426;46.104;19.656;2023-04-03T11:05:46;307.90;1715.20
56123;DHT22;42426;46.104;19.656;2023-04-03T11:08:22;307.80;1740.80
56123;DHT22;42426;46.104;19.656;2023-04-03T11:10:51;307.80;1766.40
56123;DHT22;42426;46.104;19.656;2023-04-03T11:16:23;307.90;1689.60
56123;DHT22;42426;46.104;19.656;2023-04-03T11:18:56;307.90;1689.60
56123;DHT22;42426;46.104;19.656;2023-04-03T11:21:46;307.90;1664.00
56123;DHT22;42426;46.104;19.656;2023-04-03T11:24:31;308.00;1664.00
56123;DHT22;42426;46.104;19.656;2023-04-03T11:26:59;332.80;1689.60
56123;DHT22;42426;46.104;19.656;2023-04-03T11:29:33;333.10;1689.60
56123;DHT22;42426;46.104;19.656;2023-04-03T11:35:06;333.00;1740.80
56123;DHT22;42426;46.104;19.656;2023-04-03T11:37:46;332.80;1612.80
56123;DHT22;42426;46.104;19.656;2023-04-03T11:42:46;308.10;1612.80
56123;DHT22;42426;46.104;19.656;2023-04-03T12:24:23;333.10;1689.60
56123;DHT22;42426;46.104;19.656;2023-04-03T12:29:38;333.00;1740.80
56123;DHT22;42426;46.104;19.656;2023-04-03T12:35:17;333.00;1715.20
56123;DHT22;42426;46.104;19.656;2023-04-03T12:38:25;333.10;1740.80
56123;DHT22;42426;46.104;19.656;2023-04-03T12:46:17;333.20;1587.20
56123;DHT22;42426;46.104;19.656;2023-04-03T12:48:55;333.00;1664.00
56123;DHT22;42426;46.104;19.656;2023-04-03T12:54:42;333.10;1715.20
56123;DHT22;42426;46.104;19.656;2023-04-03T12:56:42;333.10;1664.00
56123;DHT22;42426;46.104;19.656;2023-04-03T12:59:25;333.20;1689.60
56123;DHT22;42426;46.104;19.656;2023-04-03T13:01:58;333.20;1740.80
56123;DHT22;42426;46.104;19.656;2023-04-03T13:04:24;333.30;1664.00
56123;DHT22;42426;46.104;19.656;2023-04-03T13:06:50;333.20;1715.20
56123;DHT22;42426;46.104;19.656;2023-04-03T13:09:30;333.30;1664.00
56123;DHT22;42426;46.104;19.656;2023-04-03T13:12:13;333.20;1689.60
56123;DHT22;42426;46.104;19.656;2023-04-03T13:14:40;333.20;1612.80
56123;DHT22;42426;46.104;19.656;2023-04-03T13:17:16;333.10;1612.80
56123;DHT22;42426;46.104;19.656;2023-04-03T13:19:44;333.10;1638.40
56123;DHT22;42426;46.104;19.656;2023-04-03T13:22:40;333.10;1664.00
56123;DHT22;42426;46.104;19.656;2023-04-03T13:25:11;333.10;1664.00
56123;DHT22;42426;46.104;19.656;2023-04-03T13:27:39;333.10;1638.40
56123;DHT22;42426;46.104;19.656;2023-04-03T13:30:29;333.20;1664.00
56123;DHT22;42426;46.104;19.656;2023-04-03T13:32:58;333.10;1638.40
56123;DHT22;42426;46.104;19.656;2023-04-03T13:38:01;333.10;1689.60
56123;DHT22;42426;46.104;19.656;2023-04-03T13:40:27;333.10;1638.40
56123;DHT22;42426;46.104;19.656;2023-04-03T13:43:18;332.90;1612.80
56123;DHT22;42426;46.104;19.656;2023-04-03T13:48:39;332.90;1664.00
56123;DHT22;42426;46.104;19.656;2023-04-03T13:53:47;332.90;1664.00
56123;DHT22;42426;46.104;19.656;2023-04-03T13:56:32;332.80;1664.00
56123;DHT22;42426;46.104;19.656;2023-04-03T13:59:04;332.80;1664.00
56123;DHT22;42426;46.104;19.656;2023-04-03T14:04:45;308.00;1664.00
56123;DHT22;42426;46.104;19.656;2023-04-03T14:07:12;307.90;1638.40
56123;DHT22;42426;46.104;19.656;2023-04-03T14:09:39;308.00;1612.80
56123;DHT22;42426;46.104;19.656;2023-04-03T14:12:11;307.90;1612.80
56123;DHT22;42426;46.104;19.656;2023-04-03T14:14:37;307.90;1612.80
56123;DHT22;42426;46.104;19.656;2023-04-03T14:17:19;308.00;1638.40
56123;DHT22;42426;46.104;19.656;2023-04-03T14:19:47;308.00;1638.40
56123;DHT22;42426;46.104;19.656;2023-04-03T14:22:25;308.10;1612.80
56123;DHT22;42426;46.104;19.656;2023-04-03T14:24:51;332.80;1664.00
56123;DHT22;42426;46.104;19.656;2023-04-03T14:27:19;332.80;1638.40
56123;DHT22;42426;46.104;19.656;2023-04-03T14:29:46;332.80;1587.20
56123;DHT22;42426;46.104;19.656;2023-04-03T14:32:13;308.10;1536.00
56123;DHT22;42426;46.104;19.656;2023-04-03T14:34:40;308.00;1561.60
56123;DHT22;42426;46.104;19.656;2023-04-03T14:37:10;307.90;1561.60
56123;DHT22;42426;46.104;19.656;2023-04-03T14:39:36;307.90;1561.60
56123;DHT22;42426;46.104;19.656;2023-04-03T14:42:02;307.80;1587.20
56123;DHT22;42426;46.104;19.656;2023-04-03T14:44:28;308.00;1638.40
56123;DHT22;42426;46.104;19.656;2023-04-03T14:46:53;308.10;1638.40
56123;DHT22;42426;46.104;19.656;2023-04-03T14:49:22;332.80;1638.40
56123;DHT22;42426;46.104;19.656;2023-04-03T14:51:49;308.00;1587.20
56123;DHT22;42426;46.104;19.656;2023-04-03T14:54:18;308.00;1587.20
56123;DHT22;42426;46.104;19.656;2023-04-03T14:56:45;307.90;1612.80
56123;DHT22;42426;46.104;19.656;2023-04-03T14:59:14;307.70;1664.00
56123;DHT22;42426;46.104;19.656;2023-04-03T15:01:41;307.60;1664.00
56123;DHT22;42426;46.104;19.656;2023-04-03T15:04:18;307.50;1689.60
56123;DHT22;42426;46.104;19.656;2023-04-03T15:06:45;307.40;1715.20
56123;DHT22;42426;46.104;19.656;2023-04-03T15:09:23;307.50;1715.20
56123;DHT22;42426;46.104;19.656;2023-04-03T15:11:50;307.40;1715.20
56123;DHT22;42426;46.104;19.656;2023-04-03T15:14:21;307.30;1715.20
56123;DHT22;42426;46.104;19.656;2023-04-03T15:16:48;307.30;1715.20
56123;DHT22;42426;46.104;19.656;2023-04-03T15:19:13;307.30;1740.80
56123;DHT22;42426;46.104;19.656;2023-04-03T15:21:41;307.20;1740.80
56123;DHT22;42426;46.104;19.656;2023-04-03T15:24:09;307.20;1740.80
56123;DHT22;42426;46.104;19.656;2023-04-03T15:26:35;307.20;1740.80
56123;DHT22;42426;46.104;19.656;2023-04-03T15:29:01;282.50;1715.20
56123;DHT22;42426;46.104;19.656;2023-04-03T15:31:28;282.50;1740.80
56123;DHT22;42426;46.104;19.656;2023-04-03T15:33:54;282.50;1715.20
56123;DHT22;42426;46.104;19.656;2023-04-03T15:36:19;282.50;1740.80
56123;DHT22;42426;46.104;19.656;2023-04-03T15:38:45;282.50;1740.80
56123;DHT22;42426;46.104;19.656;2023-04-03T15:41:11;307.20;1740.80
56123;DHT22;42426;46.104;19.656;2023-04-03T15:43:37;307.20;1766.40
56123;DHT22;42426;46.104;19.656;2023-04-03T15:46:04;282.40;1689.60
56123;DHT22;42426;46.104;19.656;2023-04-03T15:48:31;282.40;1740.80
56123;DHT22;42426;46.104;19.656;2023-04-03T15:50:57;282.40;1664.00
56123;DHT22;42426;46.104;19.656;2023-04-03T15:53:23;282.40;1715.20
56123;DHT22;42426;46.104;19.656;2023-04-03T15:55:48;282.40;1740.80
56123;DHT22;42426;46.104;19.656;2023-04-03T15:58:14;282.40;1740.80
56123;DHT22;42426;46.104;19.656;2023-04-03T16:00:40;282.40;1766.40
56123;DHT22;42426;46.104;19.656;2023-04-03T16:03:12;282.40;1715.20
56123;DHT22;42426;46.104;19.656;2023-04-03T16:05:40;282.40;1740.80
56123;DHT22;42426;46.104;19.656;2023-04-03T16:08:07;282.40;1740.80
56123;DHT22;42426;46.104;19.656;2023-04-03T16:10:35;282.40;1740.80
56123;DHT22;42426;46.104;19.656;2023-04-03T16:13:01;282.40;1740.80
56123;DHT22;42426;46.104;19.656;2023-04-03T16:15:27;282.40;1740.80
56123;DHT22;42426;46.104;19.656;2023-04-03T16:17:53;282.40;1689.60
56123;DHT22;42426;46.104;19.656;2023-04-03T16:20:19;282.40;1715.20
56123;DHT22;42426;46.104;19.656;2023-04-03T16:22:48;282.40;1766.40
56123;DHT22;42426;46.104;19.656;2023-04-03T16:25:13;282.30;1740.80
56123;DHT22;42426;46.104;19.656;2023-04-03T16:27:39;282.30;1715.20
56123;DHT22;42426;46.104;19.656;2023-04-03T16:37:27;282.50;1664.00
56123;DHT22;42426;46.104;19.656;2023-04-03T16:39:53;282.30;1715.20
56123;DHT22;42426;46.104;19.656;2023-04-03T16:49:39;282.40;1638.40
56123;DHT22;42426;46.104;19.656;2023-04-03T16:52:05;282.40;1587.20
56123;DHT22;42426;46.104;19.656;2023-04-03T16:54:31;282.10;1664.00
56123;DHT22;42426;46.104;19.656;2023-04-03T17:01:50;282.20;1664.00